createdAt,value
2016-07-11T00:00:30.976Z,0
2016-07-11T00:01:31.063Z,0
2016-07-11T00:02:30.994Z,0
2016-07-11T00:03:31.026Z,0
2016-07-11T00:04:31.047Z,0
2016-07-11T00:05:31.018Z,0
2016-07-11T00:06:31.021Z,0
2016-07-11T00:07:30.990Z,0
2016-07-11T00:08:31.026Z,0
2016-07-11T00:09:31.027Z,0
2016-07-11T00:10:31.016Z,0
2016-07-11T00:11:31.009Z,0
2016-07-11T00:12:31.016Z,0
2016-07-11T00:13:30.974Z,0
2016-07-11T00:14:31.027Z,0
2016-07-11T00:15:31.079Z,0
2016-07-11T00:16:31.011Z,0
2016-07-11T00:17:31.630Z,0
2016-07-11T00:18:31.026Z,0
2016-07-11T00:19:31.008Z,0
2016-07-11T00:20:30.995Z,0
2016-07-11T00:21:31.033Z,0
2016-07-11T00:22:31.014Z,0
2016-07-11T00:23:31.017Z,0
2016-07-11T00:24:31.020Z,0
2016-07-11T00:25:31.043Z,0
2016-07-11T00:26:31.070Z,0
2016-07-11T00:27:31.027Z,0
2016-07-11T00:28:32.317Z,0
2016-07-11T00:29:31.013Z,0
2016-07-11T00:30:31.018Z,0
2016-07-11T00:31:31.063Z,0
2016-07-11T00:32:31.040Z,0
2016-07-11T00:33:31.017Z,0
2016-07-11T00:34:30.996Z,0
2016-07-11T00:35:30.986Z,0
2016-07-11T00:36:31.025Z,0
2016-07-11T00:37:31.030Z,0
2016-07-11T00:38:31.023Z,0
2016-07-11T00:39:31.017Z,0
2016-07-11T00:40:31.049Z,0
2016-07-11T00:41:31.012Z,0
2016-07-11T00:42:30.975Z,0
2016-07-11T00:43:31.027Z,0
2016-07-11T00:44:31.071Z,0
2016-07-11T00:45:31.045Z,0
2016-07-11T00:46:31.034Z,0
2016-07-11T00:47:31.069Z,0
2016-07-11T00:48:31.038Z,0
2016-07-11T00:49:31.046Z,0
2016-07-11T00:50:31.059Z,0
2016-07-11T00:51:31.031Z,0
2016-07-11T00:52:31.086Z,0
2016-07-11T00:53:31.016Z,0
2016-07-11T00:54:36.173Z,0
2016-07-11T00:55:32.350Z,0
2016-07-11T00:56:31.100Z,0
2016-07-11T00:57:31.011Z,0
2016-07-11T00:58:31.047Z,0
2016-07-11T00:59:31.012Z,0
2016-07-11T01:00:31.205Z,0
2016-07-11T01:01:32.369Z,0
2016-07-11T01:02:31.017Z,0
2016-07-11T01:03:31.053Z,0
2016-07-11T01:04:34.098Z,0
2016-07-11T01:05:33.221Z,0
2016-07-11T01:06:31.033Z,0
2016-07-11T01:07:31.485Z,0
2016-07-11T01:08:31.070Z,0
2016-07-11T01:09:31.062Z,0
2016-07-11T01:10:31.068Z,0
2016-07-11T01:11:31.095Z,0
2016-07-11T01:12:51.218Z,0
2016-07-11T01:13:31.091Z,0
2016-07-11T01:14:30.995Z,0
2016-07-11T01:15:31.017Z,0
2016-07-11T01:16:31.034Z,0
2016-07-11T01:17:31.048Z,0
2016-07-11T01:18:31.045Z,0
2016-07-11T01:19:31.837Z,0
2016-07-11T01:20:32.215Z,0
2016-07-11T01:21:31.082Z,0
2016-07-11T01:22:31.072Z,0
2016-07-11T01:23:31.047Z,0
2016-07-11T01:24:31.720Z,0
2016-07-11T01:25:31.059Z,0
2016-07-11T01:26:31.022Z,0
2016-07-11T01:27:31.066Z,0
2016-07-11T01:28:31.040Z,0
2016-07-11T01:29:31.072Z,0
2016-07-11T01:30:31.064Z,0
2016-07-11T01:31:31.049Z,0
2016-07-11T01:32:31.580Z,0
2016-07-11T01:33:31.057Z,0
2016-07-11T01:34:31.078Z,0
2016-07-11T01:35:31.037Z,0
2016-07-11T01:36:31.037Z,0
2016-07-11T01:37:31.060Z,0
2016-07-11T01:38:31.053Z,0
2016-07-11T01:39:31.056Z,0
2016-07-11T01:40:31.124Z,0
2016-07-11T01:41:31.455Z,0
2016-07-11T01:42:31.041Z,0
2016-07-11T01:43:31.057Z,0
2016-07-11T01:44:31.045Z,0
2016-07-11T01:45:31.091Z,0
2016-07-11T01:46:31.032Z,0
2016-07-11T01:47:31.086Z,0
2016-07-11T01:48:31.082Z,0
2016-07-11T01:49:31.065Z,0
2016-07-11T01:50:31.088Z,0
2016-07-11T01:51:31.047Z,0
2016-07-11T01:52:31.076Z,0
2016-07-11T01:53:31.030Z,0
2016-07-11T01:54:31.045Z,0
2016-07-11T01:55:31.382Z,0
2016-07-11T01:56:31.201Z,0
2016-07-11T01:57:31.050Z,0
2016-07-11T01:58:31.059Z,0
2016-07-11T01:59:31.067Z,0
2016-07-11T02:00:31.079Z,0
2016-07-11T02:01:31.047Z,0
2016-07-11T02:02:31.127Z,0
2016-07-11T02:03:31.056Z,0
2016-07-11T02:04:31.066Z,0
2016-07-11T02:05:31.187Z,0
2016-07-11T02:06:31.231Z,0
2016-07-11T02:07:31.068Z,0
2016-07-11T02:08:31.052Z,0
2016-07-11T02:09:31.110Z,0
2016-07-11T02:10:31.051Z,0
2016-07-11T02:11:31.050Z,0
2016-07-11T02:12:31.062Z,0
2016-07-11T02:13:31.037Z,0
2016-07-11T02:14:31.102Z,0
2016-07-11T02:15:31.084Z,0
2016-07-11T02:16:31.076Z,0
2016-07-11T02:17:31.149Z,0
2016-07-11T02:18:31.081Z,0
2016-07-11T02:19:31.062Z,0
2016-07-11T02:20:31.176Z,0
2016-07-11T02:21:31.097Z,0
2016-07-11T02:22:31.058Z,0
2016-07-11T02:23:31.628Z,0
2016-07-11T02:24:31.455Z,0
2016-07-11T02:25:31.055Z,0
2016-07-11T02:26:31.512Z,0
2016-07-11T02:27:31.258Z,0
2016-07-11T02:28:31.170Z,0
2016-07-11T02:29:31.317Z,0
2016-07-11T02:30:31.538Z,0
2016-07-11T02:31:31.085Z,0
2016-07-11T02:32:31.091Z,0
2016-07-11T02:33:31.086Z,0
2016-07-11T02:34:31.064Z,0
2016-07-11T02:35:31.071Z,0
2016-07-11T02:36:31.858Z,0
2016-07-11T02:37:31.120Z,0
2016-07-11T02:38:31.099Z,0
2016-07-11T02:39:31.102Z,0
2016-07-11T02:40:31.091Z,0
2016-07-11T02:41:31.362Z,0
2016-07-11T02:42:31.167Z,0
2016-07-11T02:43:31.092Z,0
2016-07-11T02:44:32.174Z,0
2016-07-11T02:45:34.106Z,0
2016-07-11T02:46:31.165Z,0
2016-07-11T02:47:31.086Z,0
2016-07-11T02:48:31.077Z,4
2016-07-11T02:49:31.107Z,4
2016-07-11T02:50:31.090Z,4
2016-07-11T02:51:31.177Z,4
2016-07-11T02:52:31.377Z,4
2016-07-11T02:53:33.325Z,4
2016-07-11T02:54:31.095Z,4
2016-07-11T02:55:31.458Z,4
2016-07-11T02:56:32.154Z,4
2016-07-11T02:57:31.667Z,4
2016-07-11T02:58:31.148Z,8
2016-07-11T02:59:31.507Z,4
2016-07-11T03:00:34.528Z,8
2016-07-11T03:01:31.591Z,12
2016-07-11T03:13:47.840Z,16
2016-07-11T03:14:47.809Z,16
2016-07-11T03:15:47.842Z,20
2016-07-11T03:16:49.572Z,28
2016-07-11T03:17:47.819Z,28
2016-07-11T03:18:47.823Z,32
2016-07-11T03:19:47.828Z,32
2016-07-11T03:20:47.835Z,36
2016-07-11T03:21:47.842Z,44
2016-07-11T03:22:47.823Z,52
2016-07-11T03:23:47.858Z,48
2016-07-11T03:24:47.819Z,48
2016-07-11T03:25:49.876Z,52
2016-07-11T03:26:47.993Z,56
2016-07-11T03:27:48.182Z,60
2016-07-11T03:28:48.104Z,48
2016-07-11T03:29:47.869Z,56
2016-07-11T03:30:47.880Z,76
2016-07-11T03:31:47.939Z,88
2016-07-11T03:32:48.112Z,100
2016-07-11T03:33:47.844Z,104
2016-07-11T03:34:47.828Z,120
2016-07-11T03:35:48.237Z,132
2016-07-11T03:36:48.297Z,144
2016-07-11T03:37:47.875Z,156
2016-07-11T03:38:47.828Z,164
2016-07-11T03:39:47.919Z,180
2016-07-11T03:40:48.135Z,200
2016-07-11T03:41:48.254Z,220
2016-07-11T03:42:47.829Z,232
2016-07-11T03:43:47.868Z,236
2016-07-11T03:44:47.876Z,248
2016-07-11T03:45:47.849Z,252
2016-07-11T03:46:47.905Z,256
2016-07-11T03:47:47.820Z,272
2016-07-11T03:48:47.910Z,288
2016-07-11T03:49:48.277Z,304
2016-07-11T03:50:52.189Z,328
2016-07-11T03:51:48.018Z,380
2016-07-11T03:52:47.866Z,380
2016-07-11T03:53:48.373Z,292
2016-07-11T03:54:47.840Z,244
2016-07-11T03:55:47.890Z,300
2016-07-11T03:56:47.870Z,356
2016-07-11T03:57:47.831Z,420
2016-07-11T03:58:48.514Z,452
2016-07-11T03:59:47.900Z,460
2016-07-11T04:00:47.861Z,480
2016-07-11T04:01:47.926Z,480
2016-07-11T04:02:47.799Z,476
2016-07-11T04:03:47.893Z,452
2016-07-11T04:04:47.885Z,432
2016-07-11T04:05:47.850Z,408
2016-07-11T04:06:48.500Z,380
2016-07-11T04:07:47.876Z,364
2016-07-11T04:08:47.869Z,400
2016-07-11T04:09:48.019Z,484
2016-07-11T04:10:47.888Z,552
2016-07-11T04:11:47.861Z,608
2016-07-11T04:12:47.912Z,660
2016-07-11T04:13:47.883Z,700
2016-07-11T04:14:47.879Z,704
2016-07-11T04:15:47.880Z,692
2016-07-11T04:16:47.844Z,664
2016-07-11T04:17:48.175Z,636
2016-07-11T04:18:47.945Z,592
2016-07-11T04:19:47.870Z,556
2016-07-11T04:20:47.882Z,548
2016-07-11T04:21:47.832Z,544
2016-07-11T04:22:48.006Z,556
2016-07-11T04:23:47.877Z,580
2016-07-11T04:24:47.864Z,564
2016-07-11T04:25:47.889Z,588
2016-07-11T04:26:47.850Z,652
2016-07-11T04:27:47.856Z,716
2016-07-11T04:28:47.875Z,808
2016-07-11T04:29:47.904Z,880
2016-07-11T04:30:48.057Z,852
2016-07-11T04:31:47.854Z,892
2016-07-11T04:32:47.873Z,1024
2016-07-11T04:33:47.870Z,1116
2016-07-11T04:34:47.954Z,1264
2016-07-11T04:35:47.856Z,1324
2016-07-11T04:36:47.888Z,1300
2016-07-11T04:37:48.027Z,1216
2016-07-11T04:38:48.062Z,1204
2016-07-11T04:39:49.191Z,1284
2016-07-11T04:40:47.870Z,1284
2016-07-11T04:41:48.642Z,1300
2016-07-11T04:42:47.870Z,1352
2016-07-11T04:43:47.874Z,1376
2016-07-11T04:44:47.826Z,1352
2016-07-11T04:45:48.671Z,1276
2016-07-11T04:46:47.862Z,1228
2016-07-11T04:47:47.882Z,1280
2016-07-11T04:48:47.882Z,1352
2016-07-11T04:49:47.866Z,1468
2016-07-11T04:50:47.904Z,1392
2016-07-11T04:51:47.898Z,1456
2016-07-11T04:52:47.889Z,1452
2016-07-11T04:53:48.252Z,1420
2016-07-11T04:54:47.887Z,1488
2016-07-11T04:55:47.906Z,1556
2016-07-11T04:56:47.913Z,1704
2016-07-11T04:57:47.882Z,1888
2016-07-11T04:58:47.884Z,1892
2016-07-11T04:59:47.950Z,1764
2016-07-11T05:00:47.931Z,1692
2016-07-11T05:01:47.887Z,1592
2016-07-11T05:02:47.835Z,1516
2016-07-11T05:03:47.893Z,1396
2016-07-11T05:04:47.876Z,1544
2016-07-11T05:05:47.971Z,1588
2016-07-11T05:06:47.879Z,1500
2016-07-11T05:07:47.957Z,1452
2016-07-11T05:08:48.474Z,1444
2016-07-11T05:09:47.934Z,1520
2016-07-11T05:10:47.895Z,1596
2016-07-11T05:11:48.115Z,1756
2016-07-11T05:12:47.864Z,1836
2016-07-11T05:13:47.840Z,1876
2016-07-11T05:14:47.945Z,1880
2016-07-11T05:15:47.892Z,1620
2016-07-11T05:16:51.811Z,1608
2016-07-11T05:17:47.921Z,1660
2016-07-11T05:18:47.892Z,1812
2016-07-11T05:19:48.273Z,1820
2016-07-11T05:20:47.876Z,1844
2016-07-11T05:21:48.046Z,1948
2016-07-11T05:22:48.023Z,2076
2016-07-11T05:23:48.021Z,2156
2016-07-11T05:24:47.908Z,2024
2016-07-11T05:25:48.121Z,1772
2016-07-11T05:26:47.914Z,1564
2016-07-11T05:27:47.911Z,1272
2016-07-11T05:28:47.861Z,1216
2016-07-11T05:29:48.082Z,1368
2016-07-11T05:30:48.037Z,1564
2016-07-11T05:31:50.185Z,1664
2016-07-11T05:32:50.306Z,1736
2016-07-11T05:33:47.850Z,1820
2016-07-11T05:34:48.202Z,1944
2016-07-11T05:35:48.236Z,1940
2016-07-11T05:36:48.111Z,1832
2016-07-11T05:37:48.005Z,1888
2016-07-11T05:38:49.005Z,2060
2016-07-11T05:39:48.351Z,2284
2016-07-11T05:40:48.192Z,2408
2016-07-11T05:41:48.009Z,2516
2016-07-11T05:42:47.932Z,2748
2016-07-11T05:43:51.239Z,2940
2016-07-11T05:44:47.972Z,3000
2016-07-11T05:45:48.749Z,2904
2016-07-11T05:46:47.995Z,2808
2016-07-11T05:47:47.937Z,2868
2016-07-11T05:48:47.944Z,2968
2016-07-11T05:49:48.181Z,3052
2016-07-11T05:50:48.073Z,2980
2016-07-11T05:51:48.945Z,2748
2016-07-11T05:52:47.971Z,2592
2016-07-11T05:53:47.905Z,2408
2016-07-11T05:54:47.955Z,2852
2016-07-11T05:55:48.131Z,3368
2016-07-11T05:57:04.845Z,3352
2016-07-11T05:57:47.892Z,3164
2016-07-11T05:58:47.922Z,2940
2016-07-11T06:00:01.494Z,2716
2016-07-11T06:01:06.948Z,2852
2016-07-11T06:01:49.186Z,2880
2016-07-11T06:02:55.247Z,3148
2016-07-11T06:03:48.155Z,3252
2016-07-11T06:04:49.368Z,3376
2016-07-11T06:05:48.182Z,3476
2016-07-11T06:07:18.708Z,3644
2016-07-11T06:07:48.334Z,3568
2016-07-11T06:08:47.940Z,3404
2016-07-11T06:09:47.991Z,3552
2016-07-11T06:10:47.913Z,3740
2016-07-11T06:11:50.149Z,3820
2016-07-11T06:12:48.146Z,3828
2016-07-11T06:13:48.017Z,3672
2016-07-11T06:14:47.991Z,3580
2016-07-11T06:15:48.602Z,3740
2016-07-11T06:16:48.280Z,4148
2016-07-11T06:17:48.112Z,4608
2016-07-11T06:18:48.196Z,4976
2016-07-11T06:19:48.070Z,5260
2016-07-11T06:20:48.724Z,5536
2016-07-11T06:21:48.002Z,5288
2016-07-11T06:22:49.853Z,5528
2016-07-11T06:23:48.328Z,6280
2016-07-11T06:24:48.042Z,6600
2016-07-11T06:25:51.430Z,6780
2016-07-11T06:26:47.981Z,6592
2016-07-11T06:27:48.132Z,6268
2016-07-11T06:28:47.973Z,5244
2016-07-11T06:29:48.366Z,4652
2016-07-11T06:30:48.044Z,4112
2016-07-11T06:31:48.052Z,4148
2016-07-11T06:32:48.009Z,4080
2016-07-11T06:33:48.179Z,4000
2016-07-11T06:34:48.138Z,3972
2016-07-11T06:35:48.112Z,4056
2016-07-11T06:36:48.136Z,4616
2016-07-11T06:37:48.013Z,5428
2016-07-11T06:38:47.946Z,5696
2016-07-11T06:39:52.807Z,5636
2016-07-11T06:40:47.992Z,5660
2016-07-11T06:41:48.040Z,5352
2016-07-11T06:42:48.311Z,5040
2016-07-11T06:43:48.035Z,4884
2016-07-11T06:45:02.085Z,4812
2016-07-11T06:45:48.023Z,4944
2016-07-11T06:46:48.939Z,4956
2016-07-11T06:48:00.165Z,4704
2016-07-11T06:50:35.833Z,5664
2016-07-11T06:50:52.322Z,5860
2016-07-11T06:51:54.496Z,6368
2016-07-11T06:52:52.375Z,6824
2016-07-11T06:53:52.865Z,7760
2016-07-11T06:54:52.405Z,8464
2016-07-11T06:55:52.395Z,9124
2016-07-11T06:56:52.326Z,10156
2016-07-11T06:57:52.344Z,11356
2016-07-11T06:58:56.800Z,12536
2016-07-11T06:59:52.479Z,13372
2016-07-11T07:00:52.311Z,14016
2016-07-11T07:01:52.716Z,13956
2016-07-11T07:02:52.422Z,13544
2016-07-11T07:03:52.323Z,13080
2016-07-11T07:04:52.516Z,12104
2016-07-11T07:05:52.369Z,11252
2016-07-11T07:06:52.773Z,11028
2016-07-11T07:07:52.348Z,10816
2016-07-11T07:08:52.390Z,10408
2016-07-11T07:09:52.367Z,10532
2016-07-11T07:10:52.330Z,11208
2016-07-11T07:11:52.335Z,12404
2016-07-11T07:12:54.766Z,13076
2016-07-11T07:13:52.295Z,12048
2016-07-11T07:14:53.158Z,10964
2016-07-11T07:15:52.538Z,9568
2016-07-11T07:16:52.389Z,8964
2016-07-11T07:17:52.408Z,8636
2016-07-11T07:18:52.408Z,8320
2016-07-11T07:20:07.591Z,7900
2016-07-11T07:20:52.318Z,7696
2016-07-11T07:21:55.596Z,7760
2016-07-11T07:22:58.219Z,8388
2016-07-11T07:23:57.313Z,8048
2016-07-11T07:24:52.339Z,8336
2016-07-11T07:25:52.282Z,8492
2016-07-11T07:26:52.744Z,8408
2016-07-11T07:27:52.463Z,7816
2016-07-11T07:29:00.868Z,7220
2016-07-11T07:29:52.340Z,7008
2016-07-11T07:30:52.394Z,7412
2016-07-11T07:31:52.306Z,7624
2016-07-11T07:33:32.400Z,8220
2016-07-11T07:33:52.287Z,8616
2016-07-11T07:34:53.670Z,10316
2016-07-11T07:35:52.603Z,11808
2016-07-11T07:36:52.827Z,13116
2016-07-11T07:37:52.515Z,14448
2016-07-11T07:38:52.636Z,15048
2016-07-11T07:39:52.896Z,15284
2016-07-11T07:40:57.541Z,14508
2016-07-11T07:41:52.476Z,12268
2016-07-11T07:42:52.480Z,11580
2016-07-11T07:43:52.492Z,11752
2016-07-11T07:44:52.336Z,10636
2016-07-11T07:45:52.357Z,10596
2016-07-11T07:46:52.455Z,11240
2016-07-11T07:47:52.420Z,11284
2016-07-11T08:00:54.530Z,21408
2016-07-11T08:01:16.031Z,26240
2016-07-11T08:02:19.669Z,43296
2016-07-11T08:03:14.175Z,54112
2016-07-11T08:04:34.583Z,20512
2016-07-11T08:05:14.025Z,21440
2016-07-11T08:06:26.766Z,25888
2016-07-11T08:07:14.056Z,61504
2016-07-11T08:08:16.402Z,47744
2016-07-11T08:09:21.597Z,15108
2016-07-11T08:10:14.080Z,13248
2016-07-11T08:11:16.167Z,12992
2016-07-11T08:14:21.058Z,11264
2016-07-11T08:14:49.416Z,11116
2016-07-11T08:15:49.056Z,11304
2016-07-11T08:16:50.122Z,11920
2016-07-11T08:17:48.483Z,12144
2016-07-11T08:18:50.287Z,12880
2016-07-11T08:19:48.563Z,13824
2016-07-11T08:20:48.540Z,14336
2016-07-11T08:21:51.518Z,14232
2016-07-11T08:22:48.470Z,14420
2016-07-11T08:23:48.812Z,18208
2016-07-11T08:24:49.038Z,40000
2016-07-11T08:25:48.783Z,41984
2016-07-11T08:26:51.213Z,46048
2016-07-11T08:27:56.286Z,70368
2016-07-11T08:28:56.932Z,67104
2016-07-11T08:29:48.636Z,30464
2016-07-11T08:30:54.502Z,61472
2016-07-11T08:31:52.913Z,30400
2016-07-11T08:33:03.325Z,23136
2016-07-11T08:33:51.396Z,29344
2016-07-11T08:34:51.398Z,36608
2016-07-11T08:35:51.466Z,25760
2016-07-11T08:37:41.938Z,24800
2016-07-11T08:38:00.073Z,19424
2016-07-11T08:39:26.209Z,17088
2016-07-11T08:40:03.357Z,16864
2016-07-11T08:41:00.414Z,17600
2016-07-11T08:41:59.347Z,18368
2016-07-11T08:43:10.052Z,18368
2016-07-11T08:43:59.012Z,16768
2016-07-11T08:45:02.508Z,21696
2016-07-11T08:45:59.717Z,21280
2016-07-11T08:47:33.148Z,19008
2016-07-11T08:48:02.657Z,28768
2016-07-11T08:49:07.625Z,34560
2016-07-11T08:50:03.001Z,65920
2016-07-11T08:51:28.794Z,30080
2016-07-11T08:52:03.492Z,25760
2016-07-11T08:53:06.216Z,19648
2016-07-11T08:54:18.681Z,19360
2016-07-11T08:57:02.440Z,19584
2016-07-11T08:58:23.461Z,39968
2016-07-11T08:58:46.113Z,26816
2016-07-11T09:00:25.379Z,29920
2016-07-11T09:00:46.845Z,23168
2016-07-11T09:02:34.367Z,32608
2016-07-11T09:03:06.461Z,27136
2016-07-11T09:04:26.992Z,27488
2016-07-11T09:04:59.327Z,24896
2016-07-11T09:05:57.121Z,43872
2016-07-11T09:06:51.778Z,76896
2016-07-11T09:07:58.620Z,79296
2016-07-11T09:08:51.789Z,74944
2016-07-11T09:09:53.266Z,62656
2016-07-11T09:10:53.207Z,54592
2016-07-11T09:11:51.935Z,57920
2016-07-11T09:12:53.982Z,67648
2016-07-11T09:13:57.191Z,79840
2016-07-11T09:15:30.963Z,63200
2016-07-11T09:16:29.875Z,55744
2016-07-11T09:17:13.042Z,97312
2016-07-11T09:18:25.266Z,27008
2016-07-11T09:19:05.967Z,21120
2016-07-11T09:20:04.689Z,12784
2016-07-11T09:21:05.978Z,11624
2016-07-11T09:22:16.402Z,24288
2016-07-11T09:23:10.656Z,73856
2016-07-11T09:24:04.725Z,53216
2016-07-11T09:26:24.779Z,13932
2016-07-11T09:27:09.074Z,16864
2016-07-11T09:27:43.528Z,31392
2016-07-11T09:29:02.152Z,17632
2016-07-11T09:29:45.745Z,17792
2016-07-11T09:30:43.358Z,99936
2016-07-11T09:31:42.342Z,25376
2016-07-11T09:32:47.801Z,30528
2016-07-11T09:33:42.946Z,19136
2016-07-11T09:35:04.683Z,21984
2016-07-11T09:36:29.549Z,22016
2016-07-11T09:37:05.311Z,12120
2016-07-11T09:38:05.398Z,11248
2016-07-11T09:39:05.143Z,12528
2016-07-11T09:40:26.279Z,13460
2016-07-11T09:41:04.206Z,47136
2016-07-11T09:42:04.363Z,102560
2016-07-11T09:43:04.254Z,97408
2016-07-11T09:44:07.933Z,24992
2016-07-11T09:45:05.734Z,110688
2016-07-11T09:46:10.328Z,17472
2016-07-11T09:47:12.914Z,101984
2016-07-11T09:48:06.148Z,23104
2016-07-11T09:49:08.070Z,106880
2016-07-11T09:50:04.929Z,99840
2016-07-11T09:51:04.441Z,98720
2016-07-11T09:52:11.346Z,84384
2016-07-11T09:53:12.461Z,106656
2016-07-11T09:54:10.958Z,95008
2016-07-11T09:56:00.171Z,109408
2016-07-11T09:56:19.199Z,107936
2016-07-11T09:57:22.719Z,106016
2016-07-11T09:58:22.427Z,101344
2016-07-11T09:59:21.418Z,102528
2016-07-11T10:00:25.773Z,53536
2016-07-11T10:01:20.267Z,95552
2016-07-11T10:02:17.748Z,88480
2016-07-11T10:03:19.853Z,92896
2016-07-11T10:04:18.277Z,101760
2016-07-11T10:05:17.694Z,100640
2016-07-11T10:06:20.592Z,104096
2016-07-11T10:07:18.798Z,105568
2016-07-11T10:08:17.854Z,15776
2016-07-11T10:09:18.476Z,104320
2016-07-11T10:10:17.834Z,104960
2016-07-11T10:11:17.913Z,101792
2016-07-11T10:12:18.874Z,27264
2016-07-11T10:13:19.770Z,11680
2016-07-11T10:14:18.517Z,11004
2016-07-11T10:15:20.691Z,10496
2016-07-11T10:16:17.768Z,81888
2016-07-11T10:17:20.827Z,84256
2016-07-11T10:18:23.673Z,90112
2016-07-11T10:19:18.466Z,17024
2016-07-11T10:20:18.913Z,27840
2016-07-11T10:21:18.855Z,90496
2016-07-11T10:22:19.354Z,31552
2016-07-11T10:23:19.888Z,14848
2016-07-11T10:24:18.810Z,14004
2016-07-11T10:25:18.358Z,13588
2016-07-11T10:26:27.667Z,55904
2016-07-11T10:27:36.012Z,18144
2016-07-11T10:28:19.556Z,94624
2016-07-11T10:29:18.596Z,91584
2016-07-11T10:30:18.897Z,16704
2016-07-11T10:31:23.446Z,42208
2016-07-11T10:32:20.542Z,69216
2016-07-11T10:33:19.910Z,61888
2016-07-11T10:34:21.967Z,63264
2016-07-11T10:35:18.275Z,71968
2016-07-11T10:36:20.317Z,73216
2016-07-11T10:46:31.706Z,22304
2016-07-11T10:46:49.823Z,75968
2016-07-11T10:47:54.287Z,70848
2016-07-11T10:48:55.008Z,41760
2016-07-11T10:49:52.971Z,23776
2016-07-11T10:50:49.891Z,16640
2016-07-11T11:01:00.356Z,19872
2016-07-11T11:01:18.580Z,13400
2016-07-11T11:02:20.544Z,96352
2016-07-11T11:03:21.466Z,90048
2016-07-11T11:04:31.561Z,16768
2016-07-11T11:05:25.321Z,81760
2016-07-11T11:06:21.118Z,82816
2016-07-11T11:07:18.920Z,10592
2016-07-11T11:08:20.342Z,41600
2016-07-11T11:09:25.376Z,28032
2016-07-11T11:10:47.211Z,88608
2016-07-11T11:11:22.037Z,89472
2016-07-11T11:12:18.435Z,93344
2016-07-11T11:13:19.734Z,15724
2016-07-11T11:14:18.896Z,88416
2016-07-11T11:15:21.591Z,35680
2016-07-11T11:16:18.536Z,84544
2016-07-11T11:17:23.798Z,83040
2016-07-11T11:18:18.656Z,86784
2016-07-11T11:19:22.339Z,87584
2016-07-11T11:20:26.963Z,11072
2016-07-11T11:21:46.298Z,20192
2016-07-11T11:22:18.707Z,94080
2016-07-11T11:24:28.812Z,65504
2016-07-11T11:24:47.152Z,73504
2016-07-11T11:25:50.196Z,67552
2016-07-11T11:27:27.758Z,13104
2016-07-11T11:27:46.997Z,19456
2016-07-11T11:28:54.672Z,101024
2016-07-11T11:29:47.959Z,94528
2016-07-11T11:30:47.311Z,102304
2016-07-11T11:31:46.935Z,102944
2016-07-11T11:33:02.461Z,38304
2016-07-11T11:34:05.588Z,10760
2016-07-11T11:34:47.068Z,110144
2016-07-11T11:35:51.091Z,15744
2016-07-11T11:36:50.085Z,13940
2016-07-11T11:37:47.257Z,15848
2016-07-11T11:38:55.368Z,102816
2016-07-11T11:39:46.696Z,99712
2016-07-11T11:40:48.729Z,12356
2016-07-11T11:41:47.089Z,54432
2016-07-11T11:42:49.235Z,14496
2016-07-11T11:43:48.563Z,10404
2016-07-11T11:44:47.276Z,34048
2016-07-11T11:46:11.188Z,14896
2016-07-11T11:46:48.137Z,12212
2016-07-11T11:47:50.022Z,9596
2016-07-11T11:49:09.402Z,8804
2016-07-11T11:49:53.439Z,17472
2016-07-11T11:50:50.611Z,15196
2016-07-11T11:51:47.445Z,13580
2016-07-11T11:52:53.551Z,10328
2016-07-11T11:54:03.552Z,17024
2016-07-11T11:54:49.173Z,26784
2016-07-11T11:55:56.024Z,31136
2016-07-11T11:56:46.977Z,87424
2016-07-11T11:57:46.855Z,17632
2016-07-11T11:58:47.364Z,10172
2016-07-11T11:59:51.477Z,9028
2016-07-11T12:00:47.526Z,9044
2016-07-11T12:01:47.158Z,12804
2016-07-11T12:02:49.241Z,71872
2016-07-11T12:03:47.540Z,69408
2016-07-11T12:04:46.307Z,72192
2016-07-11T12:05:50.353Z,74784
2016-07-11T12:06:46.247Z,82272
2016-07-11T12:07:46.470Z,20128
2016-07-11T12:08:46.379Z,16404
2016-07-11T12:09:46.331Z,76384
2016-07-11T12:10:48.770Z,74496
2016-07-11T12:11:47.152Z,80576
2016-07-11T12:12:47.529Z,52480
2016-07-11T12:13:48.295Z,87232
2016-07-11T12:14:47.253Z,72192
2016-07-11T12:15:52.352Z,93792
2016-07-11T12:16:49.579Z,14084
2016-07-11T12:17:48.676Z,18432
2016-07-11T12:18:47.459Z,11532
2016-07-11T12:20:11.507Z,11692
2016-07-11T12:20:47.608Z,16064
2016-07-11T12:21:48.637Z,11644
2016-07-11T12:22:48.213Z,7820
2016-07-11T12:23:46.486Z,14400
2016-07-11T12:24:46.416Z,100128
2016-07-11T12:25:46.878Z,98880
2016-07-11T12:26:46.364Z,17760
2016-07-11T12:27:49.046Z,11032
2016-07-11T12:28:46.403Z,20896
2016-07-11T12:29:46.460Z,10524
2016-07-11T12:30:46.443Z,80416
2016-07-11T12:31:47.621Z,103584
2016-07-11T12:32:46.432Z,63744
2016-07-11T12:33:46.542Z,17376
2016-07-11T12:34:46.314Z,14992
2016-07-11T12:35:46.687Z,13444
2016-07-11T12:36:46.444Z,21504
2016-07-11T12:37:48.478Z,12132
2016-07-11T12:39:01.931Z,97184
2016-07-11T12:39:46.614Z,37952
2016-07-11T12:40:46.297Z,60320
2016-07-11T12:41:46.343Z,87424
2016-07-11T12:42:47.572Z,89472
2016-07-11T12:43:49.505Z,91936
2016-07-11T12:45:01.286Z,91488
2016-07-11T12:45:53.095Z,84608
2016-07-11T12:46:46.790Z,75968
2016-07-11T12:47:48.091Z,68576
2016-07-11T12:48:46.336Z,68672
2016-07-11T12:50:20.031Z,44128
2016-07-11T12:51:01.611Z,29984
2016-07-11T12:51:48.185Z,86144
2016-07-11T12:52:55.350Z,85312
2016-07-11T12:53:46.601Z,84800
2016-07-11T12:54:46.453Z,86080
2016-07-11T12:55:51.935Z,80704
2016-07-11T12:56:46.466Z,84608
2016-07-11T12:57:55.422Z,65504
2016-07-11T12:58:46.424Z,95488
2016-07-11T12:59:46.995Z,89408
2016-07-11T13:00:46.703Z,11084
2016-07-11T13:01:47.671Z,12200
2016-07-11T13:02:46.678Z,9924
2016-07-11T13:03:46.640Z,8084
2016-07-11T13:04:46.497Z,10928
2016-07-11T13:05:46.418Z,22976
2016-07-11T13:06:46.481Z,27776
2016-07-11T13:07:48.630Z,15680
2016-07-11T13:08:46.551Z,14968
2016-07-11T13:10:05.373Z,12464
2016-07-11T13:10:46.426Z,12788
2016-07-11T13:11:48.382Z,17984
2016-07-11T13:13:18.714Z,50656
2016-07-11T13:13:51.539Z,86816
2016-07-11T13:14:46.801Z,94144
2016-07-11T13:15:49.945Z,91744
2016-07-11T13:16:56.828Z,87328
2016-07-11T13:26:44.942Z,56832
2016-07-11T13:27:16.137Z,44672
2016-07-11T13:28:24.829Z,15132
2016-07-11T13:29:16.537Z,86560
2016-07-11T13:30:16.332Z,21376
2016-07-11T13:31:41.997Z,79776
2016-07-11T13:32:17.955Z,78336
2016-07-11T13:33:16.567Z,65056
2016-07-11T13:34:21.268Z,63168
2016-07-11T13:35:16.135Z,65600
2016-07-11T13:36:17.332Z,66304
2016-07-11T13:37:16.297Z,12888
2016-07-11T13:38:16.801Z,57408
2016-07-11T13:39:16.912Z,7124
2016-07-11T13:40:16.081Z,7956
2016-07-11T13:41:16.079Z,8400
2016-07-11T13:42:16.217Z,9232
2016-07-11T13:43:16.417Z,24192
2016-07-11T13:44:16.560Z,14968
2016-07-11T13:45:16.486Z,18688
2016-07-11T13:46:16.387Z,24224
2016-07-11T13:47:16.455Z,16384
2016-07-11T13:48:21.483Z,16640
2016-07-11T13:49:16.078Z,15156
2016-07-11T13:50:16.283Z,15116
2016-07-11T13:51:17.151Z,14912
2016-07-11T13:52:16.337Z,14128
2016-07-11T13:53:20.178Z,12280
2016-07-11T13:54:16.458Z,10760
2016-07-11T13:55:38.467Z,10860
2016-07-11T13:56:27.031Z,10532
2016-07-11T13:57:30.791Z,9744
2016-07-11T13:58:19.135Z,8712
2016-07-11T13:59:16.162Z,9404
2016-07-11T14:00:21.314Z,8132
2016-07-11T14:01:19.474Z,8200
2016-07-11T14:02:46.316Z,9552
2016-07-11T14:03:25.909Z,10616
2016-07-11T14:05:27.704Z,9356
2016-07-11T14:06:26.052Z,11380
2016-07-11T14:08:22.606Z,8044
2016-07-11T14:09:21.273Z,8116
2016-07-11T14:10:21.305Z,7352
2016-07-11T14:11:21.332Z,6440
2016-07-11T14:12:21.478Z,6068
2016-07-11T14:13:26.204Z,5924
2016-07-11T14:14:21.264Z,5848
2016-07-11T14:15:21.686Z,6020
2016-07-11T14:16:21.278Z,7000
2016-07-11T14:17:42.702Z,7320
2016-07-11T14:18:21.055Z,7296
2016-07-11T14:19:21.263Z,6824
2016-07-11T14:20:22.049Z,6868
2016-07-11T14:21:21.292Z,6888
2016-07-11T14:22:21.308Z,7384
2016-07-11T14:23:28.360Z,7348
2016-07-11T14:24:21.279Z,6236